Time;durP1;ratioP1;P1;durP2;ratioP2;P2;SDS_P1;SDS_P2;PMS_P1;PMS_P2;Temp;Humidity;BMP_temperature;BMP_pressure;BME280_temperature;BME280_humidity;BME280_pressure;Samples;Min_cycle;Max_cycle;Signal;HPM_P1;HPM_P2
2023/06/21 00:00:27;;;;;;;6.50;6.00;;;24.70;90.70;;;;;;6205124;28;89341;-69
2023/06/21 00:03:30;;;;;;;6.57;6.07;;;24.70;90.50;;;;;;6207917;28;88344;-70
2023/06/21 00:06:34;;;;;;;6.88;6.38;;;24.70;90.40;;;;;;6193624;28;89217;-70
2023/06/21 00:09:36;;;;;;;6.53;6.03;;;24.70;90.40;;;;;;6199800;28;89042;-69
2023/06/21 00:12:38;;;;;;;6.53;6.03;;;24.70;90.30;;;;;;6206948;28;90032;-69
2023/06/21 00:15:40;;;;;;;6.07;5.57;;;24.70;90.30;;;;;;6206440;28;89052;-69
2023/06/21 00:18:43;;;;;;;6.32;5.82;;;24.70;90.20;;;;;;6205062;28;89028;-69
2023/06/21 00:21:45;;;;;;;6.70;6.20;;;24.70;90.20;;;;;;6207035;28;89064;-70
2023/06/21 00:24:47;;;;;;;7.22;6.53;;;24.70;90.20;;;;;;6207196;28;89072;-70
2023/06/21 00:27:49;;;;;;;6.20;5.70;;;24.70;90.20;;;;;;6196285;28;89204;-70
2023/06/21 00:30:51;;;;;;;6.55;5.95;;;24.70;90.20;;;;;;6206519;28;88096;-69
2023/06/21 00:33:55;;;;;;;6.22;5.72;;;24.70;90.20;;;;;;6207944;28;88362;-69
2023/06/21 00:36:57;;;;;;;5.97;5.50;;;24.70;90.10;;;;;;6205631;28;89054;-69
2023/06/21 00:39:59;;;;;;;7.15;6.45;;;24.70;90.10;;;;;;6202905;28;89037;-69
2023/06/21 00:43:01;;;;;;;6.10;5.60;;;24.70;90.10;;;;;;6204438;28;90045;-70
2023/06/21 00:46:04;;;;;;;6.25;5.75;;;24.70;90.10;;;;;;6206180;28;89130;-70
2023/06/21 00:49:07;;;;;;;6.57;5.97;;;24.70;90.10;;;;;;6205639;28;89502;-70
2023/06/21 00:52:09;;;;;;;6.30;5.80;;;24.70;90.20;;;;;;6202363;28;89196;-69
2023/06/21 00:55:13;;;;;;;6.13;5.63;;;24.70;90.20;;;;;;6206834;28;89191;-69
2023/06/21 00:58:16;;;;;;;6.97;6.28;;;24.70;90.20;;;;;;6207114;28;88361;-70
2023/06/21 01:01:18;;;;;;;6.68;6.18;;;24.70;90.20;;;;;;6205674;28;89125;-69
2023/06/21 01:04:21;;;;;;;6.28;5.78;;;24.70;90.20;;;;;;6192083;28;88410;-70
2023/06/21 01:07:37;;;;;;;6.20;5.70;;;24.70;90.20;;;;;;6200209;28;89113;-69
2023/06/21 01:10:48;;;;;;;6.28;5.78;;;24.70;90.20;;;;;;6206682;28;89060;-70
2023/06/21 01:14:04;;;;;;;6.35;5.85;;;24.70;90.20;;;;;;6206058;28;89996;-69
2023/06/21 01:17:10;;;;;;;6.18;5.70;;;24.70;90.20;;;;;;6206992;28;89232;-69
2023/06/21 01:20:23;;;;;;;6.60;6.10;;;24.70;90.20;;;;;;6205584;28;89155;-70
2023/06/21 01:23:58;;;;;;;6.30;5.80;;;24.70;90.20;;;;;;6199042;28;89284;-69
2023/06/21 01:27:13;;;;;;;6.28;5.78;;;24.70;90.10;;;;;;6199635;28;89073;-70
2023/06/21 01:30:19;;;;;;;6.35;5.85;;;24.70;90.10;;;;;;6204723;28;89482;-69
2023/06/21 01:33:23;;;;;;;6.20;5.70;;;24.70;90.10;;;;;;6205113;28;89129;-70
2023/06/21 01:36:25;;;;;;;6.25;5.75;;;24.70;90.10;;;;;;6194247;28;88508;-69
2023/06/21 01:39:28;;;;;;;6.13;5.63;;;24.70;90.10;;;;;;6205992;28;89074;-70
2023/06/21 01:42:30;;;;;;;6.60;6.10;;;24.70;90.10;;;;;;6204080;28;89085;-69
2023/06/21 01:45:34;;;;;;;6.20;5.70;;;24.70;90.10;;;;;;6205644;28;90218;-70
2023/06/21 01:48:38;;;;;;;6.38;5.88;;;24.70;90.20;;;;;;6204878;28;89002;-70
2023/06/21 01:51:42;;;;;;;6.35;5.85;;;24.70;90.20;;;;;;6203863;28;89016;-70
2023/06/21 01:54:44;;;;;;;6.55;6.00;;;24.70;90.20;;;;;;6183429;28;88996;-70
2023/06/21 01:57:46;;;;;;;6.20;5.70;;;24.70;90.20;;;;;;6199430;28;89145;-69
2023/06/21 02:00:50;;;;;;;6.05;5.55;;;24.70;90.20;;;;;;6206318;28;89194;-69
2023/06/21 02:03:56;;;;;;;6.10;5.60;;;24.70;90.20;;;;;;6199773;28;89678;-70
2023/06/21 02:07:00;;;;;;;6.35;5.85;;;24.70;90.20;;;;;;6196405;28;88365;-70
2023/06/21 02:10:03;;;;;;;6.50;6.00;;;24.70;90.20;;;;;;6199662;28;88930;-70
2023/06/21 02:13:06;;;;;;;6.72;6.18;;;24.70;90.20;;;;;;6204372;28;89107;-70
2023/06/21 02:16:09;;;;;;;6.40;5.90;;;24.70;90.20;;;;;;6197921;28;90001;-70
2023/06/21 02:19:11;;;;;;;6.15;5.65;;;24.70;90.20;;;;;;6200884;28;90385;-70
2023/06/21 02:22:15;;;;;;;6.40;5.90;;;24.70;90.10;;;;;;6188439;28;89179;-70
2023/06/21 02:25:17;;;;;;;5.85;5.45;;;24.70;90.10;;;;;;6203425;28;89051;-70
2023/06/21 02:28:20;;;;;;;6.15;5.65;;;24.70;90.10;;;;;;6205408;28;89018;-70
2023/06/21 02:31:23;;;;;;;5.85;5.45;;;24.70;90.10;;;;;;6209017;28;89085;-70
2023/06/21 02:34:26;;;;;;;6.13;5.63;;;24.70;90.10;;;;;;6202203;28;89100;-70
2023/06/21 02:37:29;;;;;;;6.57;6.07;;;24.70;90.10;;;;;;6206668;28;88301;-70
2023/06/21 02:40:30;;;;;;;6.88;6.38;;;24.70;90.20;;;;;;6209110;28;89038;-70
2023/06/21 02:43:33;;;;;;;6.20;5.70;;;24.70;90.20;;;;;;6203265;28;89209;-70
2023/06/21 02:46:37;;;;;;;7.05;6.45;;;24.70;90.20;;;;;;6199393;28;90003;-70
2023/06/21 02:49:38;;;;;;;7.00;6.32;;;24.70;90.20;;;;;;6208696;28;89077;-70
2023/06/21 02:52:40;;;;;;;6.43;5.93;;;24.70;90.20;;;;;;6209544;28;89053;-70
2023/06/21 02:55:42;;;;;;;6.05;5.55;;;24.70;90.20;;;;;;6208822;28;89412;-70
2023/06/21 02:58:44;;;;;;;6.38;5.88;;;24.70;90.20;;;;;;6206253;28;87908;-70
2023/06/21 03:01:48;;;;;;;6.57;6.07;;;24.70;90.20;;;;;;6207391;28;89222;-69
2023/06/21 03:04:50;;;;;;;6.88;6.38;;;24.70;90.20;;;;;;6208427;28;88260;-70
2023/06/21 03:07:52;;;;;;;6.78;6.18;;;24.70;90.20;;;;;;6201018;28;87298;-70
2023/06/21 03:10:53;;;;;;;6.50;5.97;;;24.70;90.20;;;;;;6208194;28;89061;-70
2023/06/21 03:13:55;;;;;;;6.50;5.90;;;24.70;90.20;;;;;;6201432;28;89122;-70
2023/06/21 03:16:59;;;;;;;6.68;6.07;;;24.70;90.10;;;;;;6209183;28;90397;-69
2023/06/21 03:20:01;;;;;;;6.55;6.00;;;24.70;90.10;;;;;;6208254;28;88987;-70
2023/06/21 03:23:03;;;;;;;6.90;6.30;;;24.70;90.10;;;;;;6208949;28;89117;-70
2023/06/21 03:26:05;;;;;;;6.43;5.93;;;24.70;90.10;;;;;;6207664;28;89206;-69
2023/06/21 03:29:08;;;;;;;6.57;6.07;;;24.80;90.20;;;;;;6207648;28;88991;-69
2023/06/21 03:32:13;;;;;;;6.80;6.30;;;24.70;90.20;;;;;;6206623;28;88567;-69
2023/06/21 03:35:15;;;;;;;7.10;6.40;;;24.70;90.20;;;;;;6206958;28;88590;-69
2023/06/21 03:38:18;;;;;;;6.75;6.25;;;24.70;90.20;;;;;;6199812;28;88315;-69
2023/06/21 03:41:20;;;;;;;7.53;6.82;;;24.70;90.20;;;;;;6206134;28;88977;-69
2023/06/21 03:44:22;;;;;;;7.10;6.53;;;24.70;90.20;;;;;;6207452;28;89079;-69
2023/06/21 03:47:25;;;;;;;7.00;6.40;;;24.70;90.20;;;;;;6194820;28;90051;-69
2023/06/21 03:50:27;;;;;;;6.45;5.95;;;24.70;90.20;;;;;;6207370;28;89407;-69
2023/06/21 03:53:29;;;;;;;6.85;6.35;;;24.70;90.20;;;;;;6206854;28;89035;-70
2023/06/21 03:56:32;;;;;;;6.80;6.30;;;24.70;90.20;;;;;;6204671;28;89040;-69
2023/06/21 03:59:34;;;;;;;6.97;6.38;;;24.70;90.20;;;;;;6205472;28;89075;-69
2023/06/21 04:02:37;;;;;;;7.10;6.50;;;24.70;90.20;;;;;;6204037;28;89196;-69
2023/06/21 04:05:39;;;;;;;6.68;6.07;;;24.70;90.20;;;;;;6205172;28;88955;-69
2023/06/21 04:08:41;;;;;;;6.50;6.00;;;24.70;90.20;;;;;;6208716;28;88766;-69
2023/06/21 04:11:44;;;;;;;6.90;6.30;;;24.70;90.10;;;;;;6196827;28;91193;-69
2023/06/21 04:14:46;;;;;;;6.45;5.95;;;24.70;90.10;;;;;;6206209;28;89159;-69
2023/06/21 04:17:50;;;;;;;7.07;6.47;;;24.70;90.10;;;;;;6206202;28;88778;-69
2023/06/21 04:20:52;;;;;;;6.95;6.35;;;24.70;90.50;;;;;;6198778;28;87999;-70
2023/06/21 04:23:54;;;;;;;6.93;6.32;;;24.70;90.10;;;;;;6200821;28;89062;-69
2023/06/21 04:26:58;;;;;;;6.88;6.35;;;24.80;90.20;;;;;;6206610;28;89056;-70
2023/06/21 04:30:00;;;;;;;7.00;6.40;;;24.70;90.20;;;;;;6204472;28;89315;-70
2023/06/21 04:33:03;;;;;;;7.53;6.82;;;24.70;90.20;;;;;;6197069;28;89119;-69
2023/06/21 04:36:06;;;;;;;6.72;6.22;;;24.70;90.20;;;;;;6208119;28;88849;-69
2023/06/21 04:39:08;;;;;;;7.47;6.88;;;24.70;90.20;;;;;;6207016;28;88728;-69
2023/06/21 04:42:10;;;;;;;7.30;6.70;;;24.70;90.20;;;;;;6205091;28;89334;-70
2023/06/21 04:45:13;;;;;;;7.28;6.68;;;24.70;90.20;;;;;;6203741;28;89284;-69
2023/06/21 04:48:16;;;;;;;7.57;6.95;;;24.70;90.20;;;;;;6202967;28;89804;-70
2023/06/21 04:51:18;;;;;;;7.05;6.45;;;24.70;90.20;;;;;;6199073;28;89076;-69
2023/06/21 04:54:22;;;;;;;7.50;6.78;;;24.70;90.30;;;;;;6206699;28;90220;-70
2023/06/21 04:57:24;;;;;;;7.47;6.78;;;24.70;90.20;;;;;;6184382;28;89102;-70
2023/06/21 05:00:26;;;;;;;7.20;6.60;;;24.70;90.20;;;;;;6206831;28;89035;-69
2023/06/21 05:03:32;;;;;;;7.03;6.43;;;24.70;90.20;;;;;;6205697;28;89036;-70
2023/06/21 05:06:34;;;;;;;7.30;6.70;;;24.70;90.20;;;;;;6205028;28;89382;-69
2023/06/21 05:09:36;;;;;;;7.25;6.65;;;24.70;90.20;;;;;;6203740;28;88355;-69
2023/06/21 05:12:38;;;;;;;6.97;6.38;;;24.70;90.20;;;;;;6196109;28;89039;-69
2023/06/21 05:15:40;;;;;;;7.10;6.50;;;24.70;90.20;;;;;;6206684;28;89558;-69
2023/06/21 05:18:43;;;;;;;7.38;6.78;;;24.70;90.20;;;;;;6205943;28;90053;-69
2023/06/21 05:21:45;;;;;;;7.78;7.07;;;24.70;90.60;;;;;;6206976;28;89403;-70
2023/06/21 05:24:47;;;;;;;7.68;6.97;;;24.70;90.20;;;;;;6206217;28;89114;-69
2023/06/21 05:27:49;;;;;;;7.32;6.72;;;24.70;90.20;;;;;;6194564;28;89096;-70
2023/06/21 05:30:51;;;;;;;7.65;6.95;;;24.70;90.20;;;;;;6204670;28;89321;-69
2023/06/21 05:33:55;;;;;;;7.57;6.90;;;24.70;90.20;;;;;;6203821;28;89149;-69
2023/06/21 05:36:57;;;;;;;7.20;6.60;;;24.70;90.30;;;;;;6203153;28;89064;-69
2023/06/21 05:40:02;;;;;;;7.55;6.85;;;24.70;90.30;;;;;;6203882;28;88332;-69
2023/06/21 05:43:05;;;;;;;7.45;6.85;;;24.70;90.30;;;;;;6193005;28;89147;-69
2023/06/21 05:46:07;;;;;;;7.57;6.97;;;24.80;90.30;;;;;;6203669;28;88070;-70
2023/06/21 05:49:11;;;;;;;7.53;6.82;;;24.70;90.30;;;;;;6204975;28;89001;-69
2023/06/21 05:52:13;;;;;;;7.70;7.10;;;24.70;90.30;;;;;;6204690;28;87091;-69
2023/06/21 05:55:15;;;;;;;6.95;6.45;;;24.80;90.40;;;;;;6204397;28;89002;-69
2023/06/21 05:58:20;;;;;;;7.50;6.90;;;24.80;90.40;;;;;;6193443;28;89033;-69
2023/06/21 06:01:22;;;;;;;7.30;6.70;;;24.80;90.40;;;;;;6197568;28;89109;-69
2023/06/21 06:04:26;;;;;;;7.88;7.18;;;24.80;90.40;;;;;;6204148;28;89102;-70
2023/06/21 06:07:28;;;;;;;7.60;6.90;;;24.70;90.40;;;;;;6191933;28;89382;-69
2023/06/21 06:10:30;;;;;;;7.82;7.13;;;24.80;90.40;;;;;;6204957;28;88401;-69
2023/06/21 06:13:32;;;;;;;8.02;7.28;;;24.80;90.40;;;;;;6185005;28;89107;-69
2023/06/21 06:16:34;;;;;;;7.82;7.13;;;24.80;90.30;;;;;;6205984;28;89115;-69
2023/06/21 06:19:37;;;;;;;7.60;7.00;;;24.80;90.40;;;;;;6204962;28;90351;-70
2023/06/21 06:22:40;;;;;;;7.88;7.18;;;24.80;90.50;;;;;;6205298;28;89117;-70
2023/06/21 06:25:42;;;;;;;7.85;7.15;;;24.80;90.50;;;;;;6204660;28;89024;-70
2023/06/21 06:28:44;;;;;;;8.00;7.30;;;24.80;90.50;;;;;;6203000;28;88023;-69
2023/06/21 06:31:46;;;;;;;8.15;7.45;;;24.80;90.50;;;;;;6202904;28;89586;-69
2023/06/21 06:34:50;;;;;;;7.85;7.10;;;24.80;90.50;;;;;;6198753;28;89238;-70
2023/06/21 06:37:51;;;;;;;8.02;7.30;;;24.80;90.60;;;;;;6204372;28;89195;-68
2023/06/21 06:40:53;;;;;;;7.47;6.80;;;24.90;90.60;;;;;;6199814;28;88381;-69
2023/06/21 06:43:55;;;;;;;7.28;6.68;;;24.80;90.60;;;;;;6202802;28;89127;-69
2023/06/21 06:46:57;;;;;;;7.60;6.90;;;24.80;90.50;;;;;;6204520;28;89167;-69
2023/06/21 06:50:02;;;;;;;7.07;6.53;;;24.80;90.50;;;;;;6204076;28;90019;-69
2023/06/21 06:53:06;;;;;;;7.70;7.00;;;24.80;90.60;;;;;;6204419;28;89244;-69
2023/06/21 06:56:08;;;;;;;7.22;6.63;;;24.80;90.60;;;;;;6204444;28;89023;-69
2023/06/21 06:59:10;;;;;;;7.75;7.05;;;24.90;90.60;;;;;;6204523;28;89072;-69
2023/06/21 07:02:12;;;;;;;7.80;7.07;;;24.90;90.60;;;;;;6202801;28;89050;-69
2023/06/21 07:05:15;;;;;;;7.53;6.82;;;24.90;90.60;;;;;;6205481;28;89035;-69
2023/06/21 07:08:17;;;;;;;7.90;7.10;;;24.80;90.50;;;;;;6208376;28;88642;-67
2023/06/21 07:11:19;;;;;;;7.60;6.90;;;24.90;90.60;;;;;;6207928;28;88373;-66
2023/06/21 07:14:21;;;;;;;7.40;6.80;;;24.90;90.60;;;;;;6207513;28;89242;-69
2023/06/21 07:17:23;;;;;;;7.95;7.25;;;24.90;90.60;;;;;;6204238;28;89023;-69
2023/06/21 07:20:27;;;;;;;7.40;6.80;;;24.90;90.60;;;;;;6200991;28;89924;-69
2023/06/21 07:23:29;;;;;;;7.35;6.75;;;24.90;90.60;;;;;;6209087;28;89115;-69
2023/06/21 07:26:31;;;;;;;7.50;6.70;;;24.90;90.60;;;;;;6207152;28;89094;-69
2023/06/21 07:29:33;;;;;;;7.57;6.90;;;24.90;90.60;;;;;;6207481;28;89079;-68
2023/06/21 07:32:35;;;;;;;7.75;7.00;;;24.90;90.70;;;;;;6207550;28;89062;-69
2023/06/21 07:35:39;;;;;;;7.35;6.75;;;24.90;90.70;;;;;;6205960;28;89119;-69
2023/06/21 07:38:46;;;;;;;7.03;6.43;;;24.90;90.70;;;;;;6195822;28;89176;-69
2023/06/21 07:41:48;;;;;;;7.65;7.00;;;24.90;90.60;;;;;;6207438;28;88398;-69
2023/06/21 07:44:52;;;;;;;6.90;6.40;;;24.90;90.60;;;;;;6206341;28;89050;-69
2023/06/21 07:47:54;;;;;;;7.20;6.60;;;24.90;90.60;;;;;;6207888;28;89143;-69
2023/06/21 07:50:57;;;;;;;7.85;7.15;;;24.90;90.60;;;;;;6196825;28;89959;-69
2023/06/21 07:53:59;;;;;;;7.18;6.57;;;24.90;90.70;;;;;;6200439;28;87698;-69
2023/06/21 07:57:01;;;;;;;7.10;6.50;;;24.90;90.70;;;;;;6206467;28;89063;-69
2023/06/21 08:00:09;;;;;;;7.35;6.75;;;24.90;90.70;;;;;;6202263;28;89078;-69
2023/06/21 08:03:10;;;;;;;7.53;6.82;;;24.90;90.70;;;;;;6195631;28;89064;-69
2023/06/21 08:06:14;;;;;;;7.13;6.53;;;25.00;90.70;;;;;;6194728;28;87891;-70
2023/06/21 08:09:16;;;;;;;7.70;7.00;;;24.90;90.70;;;;;;6200763;28;88018;-69
2023/06/21 08:12:18;;;;;;;7.53;6.85;;;24.90;90.70;;;;;;6205236;28;88341;-70
2023/06/21 08:15:20;;;;;;;7.82;7.13;;;24.90;90.70;;;;;;6195847;28;88995;-70
2023/06/21 08:18:22;;;;;;;7.35;6.70;;;24.90;90.70;;;;;;6196150;28;89056;-69
2023/06/21 08:21:25;;;;;;;7.03;6.43;;;24.90;90.70;;;;;;6206908;28;89922;-70
2023/06/21 08:24:28;;;;;;;7.47;6.78;;;24.90;90.70;;;;;;6206381;28;89152;-69
2023/06/21 08:27:29;;;;;;;7.75;6.95;;;24.90;90.70;;;;;;6193474;28;89050;-70
2023/06/21 08:30:31;;;;;;;6.88;6.28;;;24.90;90.70;;;;;;6206919;28;89095;-69
2023/06/21 08:33:33;;;;;;;7.45;6.75;;;24.90;90.70;;;;;;6206744;28;89027;-69
2023/06/21 08:36:38;;;;;;;7.63;6.93;;;24.90;90.80;;;;;;6203901;28;89102;-69
2023/06/21 08:39:40;;;;;;;7.07;6.47;;;24.90;90.70;;;;;;6198298;28;89753;-69
2023/06/21 08:42:42;;;;;;;7.40;6.70;;;24.90;90.80;;;;;;6206866;28;88863;-69
2023/06/21 08:45:45;;;;;;;7.30;6.70;;;24.90;90.70;;;;;;6206031;28;89135;-69
2023/06/21 08:48:51;;;;;;;7.38;6.78;;;25.00;90.80;;;;;;6204722;28;89008;-69
2023/06/21 08:51:58;;;;;;;6.88;6.28;;;25.00;90.80;;;;;;6204073;28;90185;-69
2023/06/21 08:55:06;;;;;;;7.07;6.47;;;25.00;90.80;;;;;;6206986;28;89392;-69
2023/06/21 08:58:14;;;;;;;6.78;6.10;;;25.00;90.80;;;;;;6207087;28;89079;-69
2023/06/21 09:01:23;;;;;;;7.80;7.10;;;25.00;90.80;;;;;;6206165;28;88884;-69
2023/06/21 09:04:28;;;;;;;7.50;6.80;;;24.90;90.70;;;;;;6204790;28;89091;-69
2023/06/21 09:07:34;;;;;;;7.20;6.60;;;25.00;90.80;;;;;;6202103;28;88942;-69
2023/06/21 09:10:39;;;;;;;6.93;6.32;;;25.00;90.80;;;;;;6198130;28;89056;-69
2023/06/21 09:13:44;;;;;;;7.10;6.28;;;25.00;90.80;;;;;;6206653;28;88430;-69
2023/06/21 09:16:47;;;;;;;7.10;6.43;;;25.00;90.80;;;;;;6204273;28;88964;-69
2023/06/21 09:19:49;;;;;;;7.65;7.00;;;25.00;90.80;;;;;;6195320;28;89130;-69
2023/06/21 09:22:53;;;;;;;7.38;6.78;;;25.00;90.80;;;;;;6206112;28;89995;-69
2023/06/21 09:25:55;;;;;;;6.70;6.20;;;25.00;90.80;;;;;;6206351;28;89191;-69
2023/06/21 09:28:57;;;;;;;6.75;6.15;;;25.00;90.80;;;;;;6204606;28;89086;-69
2023/06/21 09:31:59;;;;;;;6.78;6.18;;;25.00;90.80;;;;;;6205308;28;89536;-69
2023/06/21 09:35:02;;;;;;;7.35;6.72;;;25.00;90.80;;;;;;6207218;28;90829;-69
2023/06/21 09:38:21;;;;;;;6.55;6.03;;;25.00;90.80;;;;;;6206388;28;89123;-69
2023/06/21 09:41:24;;;;;;;7.18;6.47;;;25.00;90.80;;;;;;6205844;28;89110;-69
2023/06/21 09:44:26;;;;;;;6.90;6.30;;;25.00;90.80;;;;;;6206239;28;88263;-69
2023/06/21 09:47:30;;;;;;;7.10;6.50;;;25.00;90.80;;;;;;6204967;28;88984;-69
2023/06/21 09:50:37;;;;;;;7.20;6.60;;;25.00;90.80;;;;;;6201771;28;89040;-69
2023/06/21 09:53:43;;;;;;;6.97;6.40;;;25.00;90.80;;;;;;6198837;28;90116;-69
2023/06/21 09:56:46;;;;;;;7.30;6.70;;;25.00;90.80;;;;;;6202695;28;89047;-69
2023/06/21 09:59:49;;;;;;;7.07;6.47;;;25.00;90.90;;;;;;6204957;28;89071;-69
2023/06/21 10:02:53;;;;;;;6.80;6.28;;;25.00;90.90;;;;;;6205772;28;89082;-69
2023/06/21 10:05:56;;;;;;;7.20;6.50;;;25.00;90.90;;;;;;6205087;28;89362;-69
2023/06/21 10:09:00;;;;;;;7.28;6.57;;;25.00;90.90;;;;;;6204897;28;89096;-69
2023/06/21 10:12:02;;;;;;;7.53;6.78;;;25.00;90.90;;;;;;6193980;28;89006;-69
2023/06/21 10:15:06;;;;;;;7.10;6.50;;;25.00;90.90;;;;;;6206611;28;88341;-69
2023/06/21 10:18:09;;;;;;;7.25;6.60;;;25.00;90.90;;;;;;6193979;28;89050;-69
2023/06/21 10:21:13;;;;;;;6.70;6.07;;;25.00;90.90;;;;;;6191676;28;88262;-70
2023/06/21 10:24:18;;;;;;;6.78;6.18;;;25.00;90.90;;;;;;6204733;28;89992;-69
2023/06/21 10:27:21;;;;;;;7.22;6.55;;;25.00;90.90;;;;;;6203728;28;89113;-69
2023/06/21 10:30:25;;;;;;;6.60;6.10;;;25.00;90.90;;;;;;6200030;28;89011;-69
2023/06/21 10:33:30;;;;;;;6.65;6.13;;;25.00;90.90;;;;;;6200922;28;89081;-69
2023/06/21 10:36:36;;;;;;;7.60;6.82;;;25.10;90.90;;;;;;6204026;28;88990;-69
2023/06/21 10:39:41;;;;;;;7.07;6.47;;;25.00;90.90;;;;;;6205923;28;89981;-69
2023/06/21 10:42:43;;;;;;;6.78;6.10;;;25.10;90.90;;;;;;6208671;28;89331;-69
2023/06/21 10:45:48;;;;;;;6.75;6.18;;;25.00;90.90;;;;;;6209586;28;88447;-69
2023/06/21 10:48:51;;;;;;;7.00;6.30;;;25.00;90.90;;;;;;6208093;28;89108;-69
2023/06/21 10:51:53;;;;;;;6.68;6.07;;;25.10;91.40;;;;;;6208298;28;89197;-69
2023/06/21 10:54:58;;;;;;;6.40;5.90;;;25.10;91.00;;;;;;6207978;28;90027;-69
2023/06/21 10:58:01;;;;;;;6.35;5.85;;;25.00;91.00;;;;;;6206709;28;89266;-69
2023/06/21 11:01:04;;;;;;;7.05;6.45;;;25.00;91.00;;;;;;6208068;28;87983;-68
2023/06/21 11:04:06;;;;;;;7.20;6.53;;;25.10;91.50;;;;;;6206890;28;89208;-69
2023/06/21 11:07:10;;;;;;;6.88;6.25;;;25.10;91.10;;;;;;6207058;28;89063;-69
2023/06/21 11:10:14;;;;;;;6.78;6.18;;;25.00;91.00;;;;;;6198071;28;89366;-69
2023/06/21 11:13:17;;;;;;;6.68;6.07;;;25.10;91.10;;;;;;6197189;28;89041;-69
2023/06/21 11:16:19;;;;;;;6.47;5.95;;;25.00;91.00;;;;;;6208313;28;88086;-69
2023/06/21 11:19:21;;;;;;;7.05;6.45;;;25.10;91.10;;;;;;6208318;28;89405;-69
2023/06/21 11:22:25;;;;;;;6.70;6.13;;;25.00;91.00;;;;;;6209009;28;89246;-70
2023/06/21 11:25:29;;;;;;;7.03;6.35;;;25.10;91.10;;;;;;6195472;28;90393;-69
2023/06/21 11:28:32;;;;;;;6.68;6.15;;;25.10;91.10;;;;;;6208841;28;89067;-69
2023/06/21 11:31:40;;;;;;;7.45;6.75;;;25.10;91.10;;;;;;6207745;28;89044;-69
2023/06/21 11:34:53;;;;;;;7.10;6.50;;;25.10;91.00;;;;;;6206277;28;89090;-69
2023/06/21 11:37:58;;;;;;;7.10;6.45;;;25.10;91.10;;;;;;6207919;28;89041;-69
2023/06/21 11:41:01;;;;;;;6.50;6.00;;;25.10;91.10;;;;;;6197232;28;89060;-69
2023/06/21 11:44:04;;;;;;;6.57;5.97;;;25.10;91.20;;;;;;6207567;28;89851;-69
2023/06/21 11:47:19;;;;;;;7.15;6.55;;;25.10;91.60;;;;;;6196156;28;88305;-69
2023/06/21 11:50:23;;;;;;;6.97;6.38;;;25.10;91.20;;;;;;6206573;28;89432;-70
2023/06/21 11:53:28;;;;;;;6.75;6.15;;;25.10;91.20;;;;;;6186397;28;88451;-69
2023/06/21 11:56:32;;;;;;;6.63;6.03;;;25.10;91.20;;;;;;6202920;28;89823;-69
2023/06/21 11:59:35;;;;;;;6.68;6.07;;;25.10;91.30;;;;;;6195804;28;87928;-69
2023/06/21 12:02:37;;;;;;;6.75;6.15;;;25.10;91.20;;;;;;6207508;28;87978;-69
2023/06/21 12:05:49;;;;;;;7.03;6.43;;;25.10;91.30;;;;;;6207781;28;89055;-69
2023/06/21 12:08:56;;;;;;;6.90;6.20;;;25.10;91.20;;;;;;6199351;28;89156;-69
2023/06/21 12:11:59;;;;;;;6.97;6.38;;;25.10;91.20;;;;;;6207714;28;89003;-69
2023/06/21 12:15:03;;;;;;;6.75;6.25;;;25.10;91.30;;;;;;6195576;28;88497;-69
2023/06/21 12:18:09;;;;;;;6.75;6.20;;;25.10;91.30;;;;;;6202424;28;88335;-69
2023/06/21 12:21:11;;;;;;;6.90;6.30;;;25.10;91.30;;;;;;6206582;28;89117;-69
2023/06/21 12:24:13;;;;;;;6.80;6.20;;;25.20;91.30;;;;;;6207454;28;88980;-69
2023/06/21 12:27:17;;;;;;;6.80;6.25;;;25.10;91.20;;;;;;6205900;28;90078;-70
2023/06/21 12:30:20;;;;;;;6.70;6.10;;;25.10;91.20;;;;;;6200623;28;87894;-69
2023/06/21 12:33:26;;;;;;;6.80;6.25;;;25.10;91.30;;;;;;6196185;28;89121;-69
2023/06/21 12:36:30;;;;;;;7.53;6.82;;;25.10;91.70;;;;;;6186029;28;89531;-69
2023/06/21 12:39:32;;;;;;;6.95;6.30;;;25.10;91.40;;;;;;6205623;28;89079;-70
2023/06/21 12:42:35;;;;;;;6.47;5.97;;;25.10;91.40;;;;;;6207959;28;89391;-69
2023/06/21 12:45:37;;;;;;;6.95;6.35;;;25.10;91.40;;;;;;6194213;28;89027;-69
2023/06/21 12:48:44;;;;;;;6.85;6.25;;;25.20;91.40;;;;;;6207350;28;88377;-69
2023/06/21 12:51:47;;;;;;;6.88;6.28;;;25.10;91.40;;;;;;6194267;28;87975;-70
2023/06/21 12:54:55;;;;;;;6.57;5.97;;;25.10;91.40;;;;;;6195957;28;88971;-70
2023/06/21 12:57:59;;;;;;;6.72;6.07;;;25.10;91.40;;;;;;6200067;28;90038;-69
2023/06/21 13:01:02;;;;;;;6.65;6.10;;;25.20;91.50;;;;;;6204828;28;89027;-69
2023/06/21 13:04:07;;;;;;;7.05;6.35;;;25.10;91.40;;;;;;6205822;28;89133;-69
2023/06/21 13:07:09;;;;;;;7.45;6.70;;;25.20;91.50;;;;;;6204665;28;89131;-70
2023/06/21 13:10:11;;;;;;;6.85;6.25;;;25.20;91.50;;;;;;6207417;28;89150;-69
2023/06/21 13:13:14;;;;;;;6.45;5.85;;;25.20;91.50;;;;;;6194821;28;89322;-69
2023/06/21 13:16:17;;;;;;;6.70;6.10;;;25.20;91.50;;;;;;6204787;28;87970;-69
2023/06/21 13:19:19;;;;;;;6.82;6.20;;;25.20;91.50;;;;;;6204036;28;87580;-69
2023/06/21 13:22:21;;;;;;;6.95;6.35;;;25.20;91.40;;;;;;6206560;28;89563;-69
2023/06/21 13:25:23;;;;;;;7.32;6.63;;;25.20;91.90;;;;;;6206670;28;89483;-70
2023/06/21 13:28:27;;;;;;;6.65;6.03;;;25.20;91.50;;;;;;6204644;28;90069;-69
2023/06/21 13:31:29;;;;;;;7.40;6.55;;;25.20;91.50;;;;;;6205063;28;89035;-69
2023/06/21 13:34:31;;;;;;;6.80;6.20;;;25.20;91.60;;;;;;6206312;28;89049;-69
2023/06/21 13:37:33;;;;;;;6.50;6.00;;;25.20;91.60;;;;;;6203970;28;89376;-69
2023/06/21 13:40:35;;;;;;;7.03;6.30;;;25.20;91.60;;;;;;6204909;28;87963;-70
2023/06/21 13:43:38;;;;;;;6.80;6.20;;;25.20;91.60;;;;;;6204978;28;89111;-69
2023/06/21 13:46:40;;;;;;;6.97;6.30;;;25.20;91.60;;;;;;6204513;28;89450;-69
2023/06/21 13:49:48;;;;;;;6.80;6.20;;;25.20;91.70;;;;;;6203941;28;88367;-69
2023/06/21 13:52:50;;;;;;;6.93;6.13;;;25.20;91.70;;;;;;6201880;28;89163;-70
2023/06/21 13:55:52;;;;;;;7.25;6.50;;;25.20;91.70;;;;;;6184313;28;89176;-69
2023/06/21 13:58:56;;;;;;;6.70;6.00;;;25.20;91.70;;;;;;6204656;28;90104;-69
2023/06/21 14:01:58;;;;;;;6.63;6.03;;;25.20;91.70;;;;;;6197749;28;87987;-69
2023/06/21 14:05:00;;;;;;;6.15;5.65;;;25.20;91.70;;;;;;6206045;28;89190;-70
2023/06/21 14:08:02;;;;;;;6.60;6.00;;;25.20;91.70;;;;;;6203633;28;89103;-70
2023/06/21 14:11:04;;;;;;;6.60;6.00;;;25.20;91.80;;;;;;6193693;28;89240;-70
2023/06/21 14:14:09;;;;;;;6.55;5.95;;;25.20;91.70;;;;;;6205191;28;89096;-70
2023/06/21 14:17:11;;;;;;;6.70;6.10;;;25.20;91.60;;;;;;6209525;28;89189;-70
2023/06/21 14:20:14;;;;;;;6.38;5.88;;;25.20;91.70;;;;;;6210085;28;88558;-70
2023/06/21 14:23:15;;;;;;;7.38;6.45;;;25.20;91.70;;;;;;6208047;28;89467;-70
2023/06/21 14:26:17;;;;;;;6.28;5.78;;;25.20;91.80;;;;;;6210401;28;89088;-70
2023/06/21 14:29:21;;;;;;;6.40;5.80;;;25.20;91.80;;;;;;6205155;28;90076;-70
2023/06/21 14:32:23;;;;;;;7.05;6.38;;;25.30;91.90;;;;;;6194427;28;87966;-70
2023/06/21 14:35:25;;;;;;;6.35;5.85;;;25.20;91.90;;;;;;6209870;28;89408;-71
2023/06/21 14:38:29;;;;;;;6.10;5.50;;;25.20;91.90;;;;;;6208326;28;89088;-70
2023/06/21 14:41:30;;;;;;;6.13;5.63;;;25.20;91.90;;;;;;6208969;28;89166;-70
2023/06/21 14:44:34;;;;;;;6.25;5.65;;;25.20;91.90;;;;;;6208496;28;89071;-70
2023/06/21 14:47:36;;;;;;;6.30;5.70;;;25.20;91.90;;;;;;6207171;28;89027;-70
2023/06/21 14:50:38;;;;;;;5.75;5.25;;;25.20;91.90;;;;;;6209290;28;88316;-70
2023/06/21 14:53:40;;;;;;;5.85;5.35;;;25.20;91.90;;;;;;6202128;28;89190;-70
2023/06/21 14:56:42;;;;;;;5.95;5.45;;;25.30;91.90;;;;;;6205455;28;89023;-70
2023/06/21 14:59:46;;;;;;;6.05;5.35;;;25.20;91.90;;;;;;6204917;28;90355;-70
2023/06/21 15:02:48;;;;;;;6.18;5.50;;;25.30;92.00;;;;;;6202185;28;89835;-70
2023/06/21 15:05:51;;;;;;;6.00;5.43;;;25.30;92.30;;;;;;6208598;28;89116;-70
2023/06/21 15:08:53;;;;;;;5.55;5.05;;;25.30;91.90;;;;;;6208965;28;89086;-70
2023/06/21 15:11:55;;;;;;;5.88;5.18;;;25.30;91.80;;;;;;6208394;28;88944;-70
2023/06/21 15:14:58;;;;;;;5.90;5.40;;;25.30;91.80;;;;;;6208942;28;88052;-70
2023/06/21 15:18:00;;;;;;;5.65;4.82;;;25.30;91.80;;;;;;6208869;28;89068;-70
2023/06/21 15:21:02;;;;;;;5.30;4.80;;;25.30;91.90;;;;;;6207949;28;88732;-70
2023/06/21 15:24:05;;;;;;;5.43;4.93;;;25.30;91.90;;;;;;6206632;28;88965;-70
2023/06/21 15:27:07;;;;;;;5.40;4.90;;;25.30;91.90;;;;;;6206294;28;89185;-70
2023/06/21 15:30:11;;;;;;;5.78;5.25;;;25.30;91.90;;;;;;6207866;28;89985;-69
2023/06/21 15:33:14;;;;;;;7.30;5.20;;;25.30;92.00;;;;;;6205094;28;89057;-70
2023/06/21 15:36:16;;;;;;;5.28;4.82;;;25.30;91.90;;;;;;6196426;28;88309;-69
2023/06/21 15:39:18;;;;;;;5.68;5.18;;;25.30;91.90;;;;;;6207834;28;89065;-69
2023/06/21 15:42:20;;;;;;;5.38;4.88;;;25.30;92.00;;;;;;6206632;28;87938;-69
2023/06/21 15:45:23;;;;;;;5.03;4.63;;;25.30;92.00;;;;;;6208743;28;89424;-70
2023/06/21 15:48:25;;;;;;;5.13;4.55;;;25.30;92.00;;;;;;6207937;28;89558;-70
2023/06/21 15:51:27;;;;;;;5.53;4.80;;;25.20;91.90;;;;;;6203007;28;88346;-69
2023/06/21 15:54:29;;;;;;;5.63;5.03;;;25.30;92.00;;;;;;6188757;28;89085;-69